createdAt,value
2023-04-11T00:00:33.009Z,2.1
2023-04-11T00:03:35.093Z,2
2023-04-11T00:06:36.907Z,2.1
2023-04-11T00:09:38.863Z,1.5
2023-04-11T00:12:40.826Z,2
2023-04-11T00:15:42.766Z,1.6
2023-04-11T00:18:44.714Z,1.5
2023-04-11T00:21:46.690Z,3.4
2023-04-11T00:24:48.642Z,2.3
2023-04-11T00:27:50.632Z,1.5
2023-04-11T00:30:52.597Z,2.7
2023-04-11T00:33:54.551Z,2.4
2023-04-11T00:36:56.521Z,1.4
2023-04-11T00:39:58.470Z,1.3
2023-04-11T00:43:00.392Z,3.1
2023-04-11T00:46:02.403Z,1.8
2023-04-11T00:49:04.324Z,1.8
2023-04-11T00:52:06.289Z,2
2023-04-11T00:55:08.226Z,1.6
2023-04-11T00:58:10.206Z,1.1
2023-04-11T01:01:12.162Z,1.1
2023-04-11T01:04:14.117Z,2.3
2023-04-11T01:07:16.068Z,0.8
2023-04-11T01:10:18.047Z,1.8
2023-04-11T01:13:20.018Z,1.8
2023-04-11T01:16:22.090Z,0.9
2023-04-11T01:19:23.973Z,1.8
2023-04-11T01:22:25.888Z,1.7
2023-04-11T01:25:28.080Z,0.9
2023-04-11T01:28:29.829Z,1.1
2023-04-11T01:31:31.787Z,0.9
2023-04-11T01:34:33.772Z,1
2023-04-11T01:37:35.704Z,0.7
2023-04-11T01:40:37.688Z,1.2
2023-04-11T01:43:39.637Z,1.1
2023-04-11T01:46:41.590Z,1.4
2023-04-11T01:49:43.563Z,2.4
2023-04-11T01:52:45.506Z,1.6
2023-04-11T01:55:47.483Z,0.9
2023-04-11T01:58:49.428Z,2.7
2023-04-11T02:01:51.444Z,1.3
2023-04-11T02:04:53.412Z,3
2023-04-11T02:07:55.314Z,2.1
2023-04-11T02:10:57.325Z,1.7
2023-04-11T02:13:59.280Z,2.1
2023-04-11T02:17:01.225Z,1.3
2023-04-11T02:20:03.222Z,2.4
2023-04-11T02:23:05.200Z,1.8
2023-04-11T02:26:07.125Z,2.5
2023-04-11T02:29:09.049Z,1.5
2023-04-11T02:32:11.302Z,1.2
2023-04-11T02:35:12.984Z,2.1
2023-04-11T02:38:14.916Z,0.9
2023-04-11T02:41:16.902Z,1.6
2023-04-11T02:44:18.840Z,1
2023-04-11T02:47:20.892Z,2.2
2023-04-11T02:50:22.834Z,2
2023-04-11T02:53:24.779Z,1.7
2023-04-11T02:56:26.765Z,1.7
2023-04-11T02:59:28.727Z,1.4
2023-04-11T03:02:30.801Z,1.4
2023-04-11T03:05:32.723Z,3
2023-04-11T03:08:34.624Z,1.8
2023-04-11T03:11:36.587Z,4.1
2023-04-11T03:14:38.568Z,2.3
2023-04-11T03:17:40.522Z,1.8
2023-04-11T03:20:42.475Z,3.1
2023-04-11T03:23:44.434Z,1.7
2023-04-11T03:26:46.385Z,1.9
2023-04-11T03:29:48.382Z,2.1
2023-04-11T03:32:50.371Z,0.8
2023-04-11T03:35:52.314Z,1.4
2023-04-11T03:38:54.447Z,1.9
2023-04-11T03:41:56.208Z,1.3
2023-04-11T03:44:58.143Z,2.2
2023-04-11T03:48:00.210Z,3.2
2023-04-11T03:51:02.099Z,1.5
2023-04-11T03:54:04.004Z,1.9
2023-04-11T03:57:05.973Z,0.9
2023-04-11T04:00:07.955Z,2.5
2023-04-11T04:03:09.998Z,2.2
2023-04-11T04:06:11.864Z,3
2023-04-11T04:09:13.793Z,1.8
2023-04-11T04:12:15.742Z,1.1
2023-04-11T04:15:17.716Z,3.4
2023-04-11T04:18:19.655Z,3
2023-04-11T04:21:21.608Z,1.6
2023-04-11T04:24:23.602Z,1
2023-04-11T04:27:25.605Z,2.5
2023-04-11T04:30:27.505Z,1.7
2023-04-11T04:33:29.500Z,1.9
2023-04-11T04:36:31.508Z,2.1
2023-04-11T04:39:33.403Z,2.9
2023-04-11T04:42:35.347Z,2.8
2023-04-11T04:45:37.379Z,1.9
2023-04-11T04:48:39.377Z,1.4
2023-04-11T04:51:41.281Z,4.1
2023-04-11T04:54:43.227Z,2.1
2023-04-11T04:57:45.240Z,1.3
2023-04-11T05:00:47.212Z,1.6
2023-04-11T05:03:49.174Z,2.5
2023-04-11T05:06:51.104Z,2.3
2023-04-11T05:09:53.088Z,2.6
2023-04-11T05:12:55.073Z,3
2023-04-11T05:15:56.995Z,2.8
2023-04-11T05:18:58.965Z,5.4
2023-04-11T05:22:00.953Z,2.3
2023-04-11T05:25:02.894Z,1.6
2023-04-11T05:28:04.826Z,2
2023-04-11T05:31:06.833Z,1.2
2023-04-11T05:34:08.743Z,1.9
2023-04-11T05:37:10.721Z,4.9
2023-04-11T05:40:12.762Z,2
2023-04-11T05:43:14.662Z,4.1
2023-04-11T05:46:16.610Z,3.5
2023-04-11T05:49:18.547Z,4.7
2023-04-11T05:52:20.534Z,3.3
2023-04-11T05:55:22.483Z,1.2
2023-04-11T05:58:24.434Z,2.9
2023-04-11T06:01:26.508Z,4.8
2023-04-11T06:04:28.689Z,2.6
2023-04-11T06:07:30.348Z,5.2
2023-04-11T06:10:32.287Z,3.1
2023-04-11T06:13:34.271Z,4.9
2023-04-11T06:16:36.271Z,6.9
2023-04-11T06:19:38.185Z,5.2
2023-04-11T06:22:40.312Z,5.5
2023-04-11T06:25:42.117Z,4.1
2023-04-11T06:28:44.132Z,6.9
2023-04-11T06:31:46.119Z,6.1
2023-04-11T06:34:48.038Z,4.5
2023-04-11T06:37:50.052Z,7.3
2023-04-11T06:40:52.027Z,4.9
2023-04-11T06:43:54.179Z,6
2023-04-11T06:46:56.037Z,7.1
2023-04-11T06:49:57.864Z,7.3
2023-04-11T06:52:59.858Z,5.1
2023-04-11T06:56:01.921Z,7
2023-04-11T06:59:03.904Z,7.3
2023-04-11T07:02:05.816Z,7.6
2023-04-11T07:05:07.796Z,7.1
2023-04-11T07:08:09.755Z,7
2023-04-11T07:11:11.693Z,5.7
2023-04-11T07:14:13.706Z,8.5
2023-04-11T07:17:15.652Z,6.5
2023-04-11T07:20:17.587Z,5.1
2023-04-11T07:23:20.162Z,8.9
2023-04-11T07:26:21.510Z,6.6
2023-04-11T07:29:23.520Z,7.7
2023-04-11T07:32:25.481Z,4.5
2023-04-11T07:35:27.399Z,6.9
2023-04-11T07:38:29.357Z,7.5
2023-04-11T07:41:31.322Z,5.5
2023-04-11T07:44:33.280Z,7.2
2023-04-11T07:47:35.256Z,8.6
2023-04-11T07:50:37.278Z,6.2
2023-04-11T07:53:39.232Z,5.4
2023-04-11T07:56:41.187Z,4.7
2023-04-11T07:59:43.159Z,5.8
2023-04-11T08:02:45.206Z,6.8
2023-04-11T08:05:47.065Z,4.5
2023-04-11T08:08:49.013Z,6.5
2023-04-11T08:11:50.990Z,4.2
2023-04-11T08:14:52.951Z,6
2023-04-11T08:17:54.951Z,6.6
2023-04-11T08:20:56.963Z,5.3
2023-04-11T08:23:58.970Z,6.5
2023-04-11T08:27:00.870Z,4.8
2023-04-11T08:30:02.977Z,4.4
2023-04-11T08:33:04.835Z,4.8
2023-04-11T08:36:06.775Z,7.5
2023-04-11T08:39:08.936Z,3.7
2023-04-11T08:42:10.991Z,5.5
2023-04-11T08:45:12.628Z,3.3
2023-04-11T08:48:14.640Z,8.3
2023-04-11T08:51:16.564Z,4.1
2023-04-11T08:54:18.520Z,7.2
2023-04-11T08:57:20.488Z,5
2023-04-11T09:00:22.448Z,4.5
2023-04-11T09:03:24.476Z,5.6
2023-04-11T09:06:26.416Z,6.2
2023-04-11T09:09:28.445Z,6.7
2023-04-11T09:12:30.396Z,5.2
2023-04-11T09:15:32.395Z,3.6
2023-04-11T09:18:34.373Z,4
2023-04-11T09:21:36.341Z,4.6
2023-04-11T09:24:38.333Z,4.7
2023-04-11T09:27:40.271Z,7.4
2023-04-11T09:30:42.223Z,6.4
2023-04-11T09:33:44.194Z,4.6
2023-04-11T09:36:46.191Z,4.9
2023-04-11T09:39:48.235Z,4.2
2023-04-11T09:42:50.153Z,3.4
2023-04-11T09:45:54.668Z,4.6
2023-04-11T09:48:54.043Z,3.6
2023-04-11T09:51:56.119Z,3.1
2023-04-11T09:54:58.016Z,4.8
2023-04-11T09:57:59.983Z,3.3
2023-04-11T10:01:01.981Z,3.3
2023-04-11T10:04:03.918Z,6.7
2023-04-11T10:07:05.862Z,4.2
2023-04-11T10:10:07.891Z,4.3
2023-04-11T10:13:09.807Z,5.4
2023-04-11T10:16:11.782Z,4
2023-04-11T10:19:13.729Z,4.2
2023-04-11T10:22:15.666Z,6.7
2023-04-11T10:25:17.640Z,3.2
2023-04-11T10:28:19.586Z,5.4
2023-04-11T10:31:21.637Z,3.5
2023-04-11T10:34:23.520Z,3.5
2023-04-11T10:37:25.503Z,4.1
2023-04-11T10:40:27.448Z,2.3
2023-04-11T10:43:29.377Z,3.4
2023-04-11T10:46:31.429Z,2.8
2023-04-11T10:49:33.358Z,3.2
2023-04-11T10:52:35.278Z,3.6
2023-04-11T10:55:37.267Z,4.1
2023-04-11T10:58:39.260Z,2.1
2023-04-11T11:01:48.877Z,2.9
2023-04-11T11:04:43.256Z,3.4
2023-04-11T11:07:45.204Z,2.7
2023-04-11T11:10:49.754Z,3.4
2023-04-11T11:13:49.215Z,3
2023-04-11T11:16:51.192Z,5.1
2023-04-11T11:19:53.360Z,3.6
2023-04-11T11:22:55.311Z,2.8
2023-04-11T11:25:57.341Z,3.1
2023-04-11T11:28:59.327Z,3.6
2023-04-11T11:32:01.706Z,3.2
2023-04-11T11:35:03.461Z,2.2
2023-04-11T11:38:05.392Z,4.4
2023-04-11T11:41:07.348Z,3.7
2023-04-11T11:44:09.344Z,3.6
2023-04-11T11:47:11.321Z,2.9
2023-04-11T11:50:13.288Z,3.9
2023-04-11T11:53:15.264Z,3.6
2023-04-11T11:56:17.213Z,3.4
2023-04-11T11:59:21.681Z,4.3
2023-04-11T12:02:21.197Z,3.8
2023-04-11T12:05:23.155Z,3.7
2023-04-11T12:08:25.070Z,3.7
2023-04-11T12:11:27.060Z,3.5
2023-04-11T12:14:29.088Z,3.7
2023-04-11T12:17:31.084Z,2.8
2023-04-11T12:20:33.151Z,4.2
2023-04-11T12:23:34.999Z,4
2023-04-11T12:26:40.046Z,6.7
2023-04-11T12:29:39.003Z,2.6
2023-04-11T12:32:40.984Z,4
2023-04-11T12:35:44.679Z,3.4
2023-04-11T12:38:47.850Z,3.6
2023-04-11T12:41:46.921Z,2.7
2023-04-11T12:44:48.839Z,2.3
2023-04-11T12:47:51.015Z,3.7
2023-04-11T12:50:52.739Z,2.6
2023-04-11T12:53:54.759Z,3.3
2023-04-11T12:56:56.805Z,2.9
2023-04-11T12:59:58.828Z,1.9
2023-04-11T13:03:00.837Z,2.8
2023-04-11T13:06:02.867Z,1.8
2023-04-11T13:09:05.125Z,2.7
2023-04-11T13:12:06.620Z,2.9
2023-04-11T13:15:08.595Z,1.8
2023-04-11T13:18:10.620Z,2.5
2023-04-11T13:21:12.651Z,3.9
2023-04-11T13:24:16.348Z,2
2023-04-11T13:27:16.642Z,3.3
2023-04-11T13:30:18.580Z,1.5
2023-04-11T13:33:20.555Z,3.1
2023-04-11T13:36:22.603Z,2.3
2023-04-11T13:39:24.585Z,2.2
2023-04-11T13:42:26.591Z,3.2
2023-04-11T13:45:28.608Z,2.9
2023-04-11T13:48:30.567Z,2
2023-04-11T13:51:32.609Z,3.4
2023-04-11T13:54:34.545Z,3.7
2023-04-11T13:57:36.497Z,2.4
2023-04-11T14:00:38.472Z,2.1
2023-04-11T14:03:40.528Z,2.8
2023-04-11T14:06:45.634Z,1.3
2023-04-11T14:09:47.583Z,2.4
2023-04-11T14:12:49.593Z,3.3
2023-04-11T14:16:01.240Z,2.9
2023-04-11T14:18:53.540Z,3.1
2023-04-11T14:21:55.414Z,1.9
2023-04-11T14:24:57.393Z,2
2023-04-11T14:27:59.414Z,2.9
2023-04-11T14:31:01.417Z,2.6
2023-04-11T14:34:03.316Z,2.2
2023-04-11T14:37:05.347Z,2.4
2023-04-11T14:40:07.312Z,3.1
2023-04-11T14:43:09.185Z,1.2
2023-04-11T14:46:11.193Z,3
2023-04-11T14:49:13.117Z,3.6
2023-04-11T14:52:15.088Z,1.9
2023-04-11T14:55:17.033Z,2.5
2023-04-11T14:58:19.037Z,2.7
2023-04-11T15:01:20.980Z,2.2
2023-04-11T15:04:22.977Z,2.6
2023-04-11T15:07:24.881Z,3.1
2023-04-11T15:10:26.860Z,3.3
2023-04-11T15:13:28.813Z,1.6
2023-04-11T15:16:30.854Z,2.5
2023-04-11T15:19:32.755Z,2.8
2023-04-11T15:22:35.265Z,2.7
2023-04-11T15:25:36.641Z,3.9
2023-04-11T15:28:38.660Z,2.5
2023-04-11T15:31:40.582Z,3.2
2023-04-11T15:34:42.553Z,2.9
2023-04-11T15:37:44.486Z,3.7
2023-04-11T15:40:46.452Z,2.9
2023-04-11T15:43:48.428Z,2.4
2023-04-11T15:46:50.454Z,2.3
2023-04-11T15:49:52.348Z,3.6
2023-04-11T15:52:55.963Z,2.1
2023-04-11T15:55:56.302Z,4
2023-04-11T15:58:58.327Z,3.3
2023-04-11T16:02:00.409Z,1.9
2023-04-11T16:05:02.306Z,2.1
2023-04-11T16:08:04.157Z,3.5
2023-04-11T16:11:06.125Z,3.8
2023-04-11T16:14:08.153Z,2.1
2023-04-11T16:17:10.094Z,1.6
2023-04-11T16:20:12.307Z,2.7
2023-04-11T16:23:13.989Z,2.5
2023-04-11T16:26:15.921Z,3.5
2023-04-11T16:29:17.867Z,3.1
2023-04-11T16:32:19.874Z,3.7
2023-04-11T16:35:21.847Z,3.2
2023-04-11T16:38:23.790Z,2.7
2023-04-11T16:41:25.754Z,4
2023-04-11T16:44:27.805Z,3
2023-04-11T16:47:29.714Z,3
2023-04-11T16:50:31.664Z,5.4
2023-04-11T16:53:33.651Z,2.9
2023-04-11T16:56:35.602Z,3.1
2023-04-11T16:59:37.571Z,3.3
2023-04-11T17:02:39.636Z,3.7
2023-04-11T17:05:41.474Z,2.2
2023-04-11T17:08:43.423Z,2.8
2023-04-11T17:11:45.452Z,3.2
2023-04-11T17:14:47.404Z,2
2023-04-11T17:17:49.371Z,2.5
2023-04-11T17:20:51.284Z,4.6
2023-04-11T17:23:53.249Z,3
2023-04-11T17:26:55.221Z,4.5
2023-04-11T17:29:57.213Z,3.7
2023-04-11T17:32:59.236Z,3
2023-04-11T17:36:03.548Z,1.8
2023-04-11T17:39:03.109Z,2.4
2023-04-11T17:42:05.110Z,2.5
2023-04-11T17:45:16.398Z,2.5
2023-04-11T17:48:09.110Z,2
2023-04-11T17:51:10.979Z,1.8
2023-04-11T17:54:12.967Z,3.4
2023-04-11T17:57:16.280Z,2.7
2023-04-11T18:00:16.952Z,3.1
2023-04-11T18:03:19.064Z,3.5
2023-04-11T18:06:20.809Z,3.2
2023-04-11T18:09:22.752Z,1.6
2023-04-11T18:12:29.398Z,2.8
2023-04-11T18:15:26.700Z,2.9
2023-04-11T18:18:28.719Z,5.1
2023-04-11T18:21:30.778Z,3.4
2023-04-11T18:24:32.703Z,2.6
2023-04-11T18:27:34.659Z,2.9
2023-04-11T18:30:36.610Z,3.2
2023-04-11T18:33:42.216Z,3.5
2023-04-11T18:36:40.599Z,3.8
2023-04-11T18:39:42.475Z,3.7
2023-04-11T18:42:44.614Z,3.2
2023-04-11T18:45:47.092Z,2.1
2023-04-11T18:48:48.369Z,3.2
2023-04-11T18:51:50.412Z,3.2
2023-04-11T18:54:52.316Z,3.1
2023-04-11T18:57:57.765Z,4.1
2023-04-11T19:00:56.240Z,4.6
2023-04-11T19:03:58.493Z,3.5
2023-04-11T19:07:00.210Z,4.2
2023-04-11T19:10:02.131Z,3.3
2023-04-11T19:13:04.105Z,2.7
2023-04-11T19:16:06.071Z,3.9
2023-04-11T19:19:08.010Z,4
2023-04-11T19:22:09.956Z,3.8
2023-04-11T19:25:12.045Z,3.3
2023-04-11T19:28:13.881Z,3.9
2023-04-11T19:31:15.973Z,2.9
2023-04-11T19:34:17.847Z,3.3
2023-04-11T19:37:19.807Z,3.3
2023-04-11T19:40:21.780Z,3.2
2023-04-11T19:43:23.710Z,3.6
2023-04-11T19:46:25.721Z,5.7
2023-04-11T19:49:27.641Z,1.9
2023-04-11T19:52:29.655Z,3
2023-04-11T19:55:31.621Z,2.3
2023-04-11T19:58:33.533Z,5.1
2023-04-11T20:01:35.513Z,4.3
2023-04-11T20:04:37.485Z,3.4
2023-04-11T20:07:39.392Z,3.6
2023-04-11T20:10:41.357Z,2.6
2023-04-11T20:13:43.310Z,2.3
2023-04-11T20:16:45.296Z,3.7
2023-04-11T20:19:47.293Z,3.3
2023-04-11T20:22:49.218Z,5.1
2023-04-11T20:25:51.172Z,2.9
2023-04-11T20:28:53.172Z,5.5
2023-04-11T20:31:55.131Z,2.5
2023-04-11T20:34:57.084Z,5
2023-04-11T20:37:59.048Z,4
2023-04-11T20:41:01.091Z,5.5
2023-04-11T20:44:03.008Z,6.9
2023-04-11T20:47:04.949Z,3.7
2023-04-11T20:50:07.134Z,4.9
2023-04-11T20:53:08.920Z,5.5
2023-04-11T20:56:10.834Z,5
2023-04-11T20:59:12.836Z,4.3
2023-04-11T21:02:14.880Z,4.8
2023-04-11T21:05:16.753Z,3
2023-04-11T21:08:18.670Z,4.9
2023-04-11T21:11:20.638Z,4
2023-04-11T21:14:22.605Z,4.9
2023-04-11T21:17:24.656Z,4.7
2023-04-11T21:20:26.533Z,2.9
2023-04-11T21:23:28.494Z,4.8
2023-04-11T21:26:30.510Z,3.3
2023-04-11T21:29:32.454Z,3.9
2023-04-11T21:32:34.462Z,4.9
2023-04-11T21:35:36.435Z,2.8
2023-04-11T21:38:38.500Z,2.5
2023-04-11T21:41:40.310Z,4.3
2023-04-11T21:44:42.300Z,3.5
2023-04-11T21:47:44.289Z,4.1
2023-04-11T21:50:46.181Z,4.6
2023-04-11T21:53:48.146Z,5.2
2023-04-11T21:56:50.132Z,6.3
2023-04-11T21:59:52.086Z,4.6
2023-04-11T22:02:54.302Z,4.1
2023-04-11T22:05:56.036Z,2.9
2023-04-11T22:08:58.021Z,4
2023-04-11T22:11:59.998Z,2.4
2023-04-11T22:15:01.986Z,4.1
2023-04-11T22:18:04.038Z,3.2
2023-04-11T22:21:05.871Z,3.3
2023-04-11T22:24:07.879Z,3.4
2023-04-11T22:27:09.848Z,4.7
2023-04-11T22:30:11.801Z,4
2023-04-11T22:33:13.766Z,3.7
2023-04-11T22:36:15.708Z,3.9
2023-04-11T22:39:17.664Z,3.4
2023-04-11T22:42:19.648Z,4
2023-04-11T22:45:21.597Z,3.5
2023-04-11T22:48:23.569Z,5.8
2023-04-11T22:51:25.536Z,4.7
2023-04-11T22:54:27.503Z,4.8
2023-04-11T22:57:29.455Z,3.2
2023-04-11T23:00:31.422Z,5.5
2023-04-11T23:03:33.395Z,3.4
2023-04-11T23:06:35.369Z,4.4
2023-04-11T23:09:37.325Z,5.3
2023-04-11T23:12:39.284Z,5.8
2023-04-11T23:15:41.217Z,5
2023-04-11T23:18:43.175Z,6
2023-04-11T23:21:45.140Z,6.9
2023-04-11T23:24:47.092Z,3
2023-04-11T23:27:49.056Z,5.2
2023-04-11T23:30:51.034Z,3.6
2023-04-11T23:33:52.967Z,4.8
2023-04-11T23:36:54.920Z,3.5
2023-04-11T23:39:56.915Z,5.4
2023-04-11T23:42:58.873Z,5.2
2023-04-11T23:46:00.830Z,4.3
2023-04-11T23:49:02.818Z,4.3
2023-04-11T23:52:04.776Z,4.7
2023-04-11T23:55:06.700Z,5.5
2023-04-11T23:58:08.675Z,2.7
